Terminal Aerodrome Forecast
Issued by NWS

Home | Current Version | Previous Version | Text Only | Print | Product List | Glossary Off
Versions: 1 2 3 4 5 6 7 8 9 10 11 12 13 14 15 16

000
FTUS43 KGRB 251700
TAFATW
TAF
KATW 251729Z 2518/2618 21010G17KT P6SM BKN200
     FM252100 23007KT P6SM SCT035 SCT070
     FM260400 27004KT P6SM SCT070 SCT150
     FM260700 29004KT P6SM BKN150
     FM261500 28008KT P6SM SCT200=

USA.gov is the U.S. government's official web portal to all federal, state and local government web resources and services.